createdAt,value
2022-11-30T00:01:55.177Z,34.00
2022-11-30T00:04:23.062Z,35.10
2022-11-30T00:06:50.762Z,34.10
2022-11-30T00:09:18.889Z,37.10
2022-11-30T00:11:46.624Z,39.30
2022-11-30T00:14:14.271Z,37.10
2022-11-30T00:16:42.258Z,35.30
2022-11-30T00:19:09.923Z,35.20
2022-11-30T00:21:37.707Z,33.10
2022-11-30T00:24:06.094Z,35.10
2022-11-30T00:26:33.958Z,35.90
2022-11-30T00:29:02.022Z,37.00
2022-11-30T00:31:30.330Z,38.70
2022-11-30T00:33:58.124Z,38.40
2022-11-30T00:36:25.969Z,38.10
2022-11-30T00:38:54.481Z,36.10
2022-11-30T00:41:22.401Z,36.90
2022-11-30T00:43:50.315Z,35.30
2022-11-30T00:46:18.376Z,36.00
2022-11-30T00:48:46.234Z,37.90
2022-11-30T00:51:14.835Z,37.70
2022-11-30T00:53:42.819Z,38.50
2022-11-30T00:56:10.986Z,38.70
2022-11-30T00:58:39.314Z,38.00
2022-11-30T01:01:43.101Z,35.80
2022-11-30T01:04:11.608Z,37.00
2022-11-30T01:06:40.277Z,36.10
2022-11-30T01:09:10.337Z,37.10
2022-11-30T01:11:38.707Z,41.10
2022-11-30T01:14:06.582Z,39.80
2022-11-30T01:16:34.653Z,40.50
2022-11-30T01:19:04.038Z,40.10
2022-11-30T01:21:33.608Z,39.50
2022-11-30T01:24:02.362Z,38.70
2022-11-30T01:26:30.546Z,37.60
2022-11-30T01:28:58.211Z,37.50
2022-11-30T01:31:26.478Z,36.60
2022-11-30T01:33:55.492Z,39.20
2022-11-30T01:36:26.753Z,42.90
2022-11-30T01:38:58.641Z,42.00
2022-11-30T01:41:29.498Z,44.90
2022-11-30T01:44:20.103Z,39.50
2022-11-30T01:47:05.463Z,39.50
2022-11-30T01:49:38.293Z,37.60
2022-11-30T01:52:17.090Z,35.70
2022-11-30T01:54:51.636Z,40.80
2022-11-30T01:57:29.732Z,39.50
2022-11-30T02:00:01.759Z,41.80
2022-11-30T02:02:45.058Z,40.30
2022-11-30T02:05:13.226Z,39.20
2022-11-30T02:07:42.155Z,38.10
2022-11-30T02:10:16.033Z,37.90
2022-11-30T02:13:05.583Z,37.90
2022-11-30T02:15:55.903Z,38.70
2022-11-30T02:19:08.291Z,38.50
2022-11-30T02:21:51.730Z,40.30
2022-11-30T02:24:26.243Z,38.40
2022-11-30T02:27:10.617Z,36.80
2022-11-30T02:29:44.003Z,36.30
2022-11-30T02:32:27.761Z,39.80
2022-11-30T02:34:58.546Z,38.90
2022-11-30T02:37:29.691Z,38.30
2022-11-30T02:39:58.316Z,38.60
2022-11-30T02:42:26.026Z,37.50
2022-11-30T02:44:55.138Z,36.80
2022-11-30T02:47:46.861Z,40.20
2022-11-30T02:50:43.817Z,39.30
2022-11-30T02:53:11.751Z,41.30
2022-11-30T02:55:40.291Z,40.60
2022-11-30T02:58:08.485Z,36.10
2022-11-30T03:00:36.381Z,37.40
2022-11-30T03:03:04.328Z,37.70
2022-11-30T03:05:32.660Z,38.40
2022-11-30T03:08:00.689Z,41.70
2022-11-30T03:10:29.793Z,43.10
2022-11-30T03:12:58.910Z,44.00
2022-11-30T03:15:28.766Z,37.60
2022-11-30T03:17:57.026Z,38.50
2022-11-30T03:20:24.807Z,37.60
2022-11-30T03:22:52.744Z,38.30
2022-11-30T03:25:20.814Z,40.70
2022-11-30T03:27:48.749Z,43.20
2022-11-30T03:30:17.345Z,41.10
2022-11-30T03:32:45.015Z,37.30
2022-11-30T03:35:14.626Z,39.00
2022-11-30T03:37:42.594Z,39.90
2022-11-30T03:40:11.467Z,41.00
2022-11-30T03:42:39.592Z,40.70
2022-11-30T03:45:08.670Z,41.10
2022-11-30T03:47:38.105Z,40.60
2022-11-30T03:50:06.516Z,39.20
2022-11-30T03:52:35.949Z,40.10
2022-11-30T03:55:06.138Z,38.60
2022-11-30T03:57:34.073Z,39.40
2022-11-30T04:00:01.971Z,42.20
2022-11-30T04:02:44.516Z,43.60
2022-11-30T04:05:13.384Z,40.70
2022-11-30T04:07:41.368Z,41.20
2022-11-30T04:10:09.892Z,37.80
2022-11-30T04:12:37.843Z,34.30
2022-11-30T04:15:06.250Z,33.50
2022-11-30T04:17:33.947Z,34.70
2022-11-30T04:20:02.441Z,37.80
2022-11-30T04:22:33.857Z,36.70
2022-11-30T04:25:01.585Z,37.20
2022-11-30T04:27:29.482Z,35.40
2022-11-30T04:29:58.401Z,39.00
2022-11-30T04:32:26.056Z,35.50
2022-11-30T04:34:54.010Z,36.40
2022-11-30T04:37:22.250Z,37.70
2022-11-30T04:39:49.999Z,39.40
2022-11-30T04:42:17.774Z,40.70
2022-11-30T04:44:45.643Z,40.70
2022-11-30T04:47:13.635Z,38.10
2022-11-30T04:49:41.536Z,38.00
2022-11-30T04:52:09.401Z,36.30
2022-11-30T04:54:37.156Z,38.10
2022-11-30T04:57:06.466Z,35.50
2022-11-30T04:59:34.155Z,36.00
2022-11-30T05:02:01.934Z,36.40
2022-11-30T05:04:30.017Z,39.40
2022-11-30T05:06:57.937Z,39.60
2022-11-30T05:09:25.678Z,36.00
2022-11-30T05:11:53.710Z,34.90
2022-11-30T05:14:21.431Z,34.80
2022-11-30T05:16:50.042Z,39.10
2022-11-30T05:19:19.433Z,38.80
2022-11-30T05:21:47.187Z,39.20
2022-11-30T05:24:14.895Z,39.10
2022-11-30T05:26:42.731Z,36.40
2022-11-30T05:29:10.626Z,32.60
2022-11-30T05:31:38.813Z,33.70
2022-11-30T05:34:06.980Z,34.90
2022-11-30T05:36:34.926Z,36.30
2022-11-30T05:39:02.699Z,36.70
2022-11-30T05:41:30.714Z,33.80
2022-11-30T05:43:59.091Z,37.00
2022-11-30T05:46:26.839Z,36.30
2022-11-30T05:48:55.282Z,33.80
2022-11-30T05:51:23.630Z,34.60
2022-11-30T05:53:51.444Z,36.80
2022-11-30T05:56:21.549Z,36.20
2022-11-30T05:58:49.574Z,36.00
2022-11-30T06:01:23.698Z,36.40
2022-11-30T06:03:52.374Z,33.80
2022-11-30T06:06:20.966Z,36.00
2022-11-30T06:08:50.489Z,35.60
2022-11-30T06:11:18.659Z,37.60
2022-11-30T06:13:46.395Z,37.10
2022-11-30T06:16:14.336Z,38.10
2022-11-30T06:18:42.448Z,39.10
2022-11-30T06:21:11.527Z,34.40
2022-11-30T06:23:39.541Z,33.40
2022-11-30T06:26:10.483Z,34.30
2022-11-30T06:28:42.094Z,38.80
2022-11-30T06:31:13.537Z,36.60
2022-11-30T06:33:43.404Z,34.60
2022-11-30T06:36:11.137Z,34.70
2022-11-30T06:38:39.174Z,34.40
2022-11-30T06:41:09.074Z,34.50
2022-11-30T06:43:38.536Z,32.30
2022-11-30T06:46:07.686Z,32.90
2022-11-30T06:48:36.013Z,32.60
2022-11-30T06:51:09.016Z,33.80
2022-11-30T06:53:37.111Z,34.60
2022-11-30T06:56:10.507Z,34.40
2022-11-30T06:58:39.893Z,34.40
2022-11-30T07:01:11.011Z,32.10
2022-11-30T07:03:40.117Z,31.00
2022-11-30T07:06:10.428Z,28.50
2022-11-30T07:08:39.195Z,32.20
2022-11-30T07:11:08.640Z,33.00
2022-11-30T07:13:37.264Z,31.90
2022-11-30T07:16:06.736Z,29.70
2022-11-30T07:18:35.497Z,28.60
2022-11-30T07:21:04.967Z,29.50
2022-11-30T07:24:09.982Z,26.30
2022-11-30T07:26:37.881Z,29.20
2022-11-30T07:29:06.162Z,31.80
2022-11-30T07:31:39.215Z,32.40
2022-11-30T07:34:10.160Z,30.50
2022-11-30T07:36:37.948Z,31.60
2022-11-30T07:39:06.881Z,30.20
2022-11-30T07:41:34.796Z,30.80
2022-11-30T07:44:08.274Z,30.80
2022-11-30T07:49:35.109Z,32.70
2022-11-30T07:52:04.615Z,32.80
2022-11-30T07:57:01.003Z,32.70
2022-11-30T07:59:28.835Z,32.90
2022-11-30T08:01:56.766Z,31.10
2022-11-30T08:04:25.090Z,29.40
2022-11-30T08:06:54.742Z,32.60
2022-11-30T08:12:05.850Z,31.90
2022-11-30T08:15:18.288Z,31.60
2022-11-30T08:17:36.678Z,31.60
2022-11-30T08:20:06.438Z,32.10
2022-11-30T08:22:35.434Z,32.40
2022-11-30T08:25:06.721Z,31.20
2022-11-30T08:27:34.607Z,31.70
2022-11-30T08:30:02.823Z,30.30
2022-11-30T08:32:31.485Z,33.40
2022-11-30T08:34:59.356Z,32.70
2022-11-30T08:37:28.119Z,34.30
2022-11-30T08:39:56.823Z,33.00
2022-11-30T08:42:25.215Z,33.90
2022-11-30T08:44:53.008Z,33.10
2022-11-30T08:47:22.965Z,31.20
2022-11-30T08:49:51.001Z,31.10
2022-11-30T08:52:22.019Z,30.80
2022-11-30T08:54:50.945Z,35.10
2022-11-30T08:57:27.072Z,32.00
2022-11-30T08:59:57.350Z,32.40
2022-11-30T09:02:26.747Z,32.30
2022-11-30T09:07:23.851Z,29.00
2022-11-30T09:09:52.220Z,30.70
2022-11-30T09:13:11.122Z,27.60
2022-11-30T09:16:10.180Z,29.20
2022-11-30T09:18:39.977Z,29.30
2022-11-30T09:21:10.895Z,30.50
2022-11-30T09:23:40.013Z,29.40
2022-11-30T09:26:26.555Z,30.40
2022-11-30T09:29:00.226Z,26.80
2022-11-30T09:31:30.267Z,25.40
2022-11-30T09:34:07.029Z,27.70
2022-11-30T09:36:37.453Z,29.50
2022-11-30T09:39:06.589Z,29.10
2022-11-30T09:41:34.470Z,32.50
2022-11-30T09:44:21.414Z,30.90
2022-11-30T09:47:14.326Z,28.60
2022-11-30T09:49:47.707Z,25.80
2022-11-30T09:52:34.048Z,27.40
2022-11-30T09:55:08.195Z,26.80
2022-11-30T09:57:47.131Z,30.00
2022-11-30T10:00:22.739Z,30.00
2022-11-30T10:02:52.998Z,31.50
2022-11-30T10:05:29.945Z,28.70
2022-11-30T10:08:22.393Z,33.00
2022-11-30T10:11:11.714Z,30.80
2022-11-30T10:16:22.852Z,28.90
2022-11-30T10:19:09.569Z,27.00
2022-11-30T10:21:45.938Z,28.70
2022-11-30T10:24:35.939Z,29.30
2022-11-30T10:27:17.517Z,31.60
2022-11-30T10:29:45.496Z,30.10
2022-11-30T10:32:19.876Z,31.90
2022-11-30T10:35:04.330Z,32.80
2022-11-30T10:37:37.231Z,28.80
2022-11-30T10:40:27.101Z,27.00
2022-11-30T10:43:25.758Z,30.40
2022-11-30T10:45:53.911Z,30.70
2022-11-30T10:48:31.605Z,30.20
2022-11-30T10:51:03.881Z,32.10
2022-11-30T10:53:33.075Z,30.90
2022-11-30T10:56:11.208Z,28.10
2022-11-30T10:58:53.087Z,29.80
2022-11-30T11:01:39.454Z,28.80
2022-11-30T11:04:20.896Z,30.20
2022-11-30T11:07:09.966Z,31.00
2022-11-30T11:10:07.872Z,31.60
2022-11-30T11:12:38.734Z,32.20
2022-11-30T11:15:19.031Z,32.20
2022-11-30T11:17:49.521Z,30.00
2022-11-30T11:20:32.739Z,28.50
2022-11-30T11:25:34.328Z,27.60
2022-11-30T11:28:19.368Z,32.80
2022-11-30T11:30:48.318Z,31.50
2022-11-30T11:33:24.845Z,29.20
2022-11-30T11:36:14.769Z,28.70
2022-11-30T11:38:51.472Z,30.50
2022-11-30T11:41:31.674Z,28.50
2022-11-30T11:44:11.939Z,29.40
2022-11-30T11:46:53.894Z,29.90
2022-11-30T11:49:24.958Z,31.40
2022-11-30T11:52:14.444Z,29.90
2022-11-30T11:55:00.021Z,32.10
2022-11-30T11:57:38.489Z,27.90
2022-11-30T12:00:21.732Z,31.20
2022-11-30T12:03:19.334Z,31.10
2022-11-30T12:06:17.845Z,27.80
2022-11-30T12:09:00.296Z,27.20
2022-11-30T12:11:48.015Z,29.60
2022-11-30T12:14:18.331Z,29.40
2022-11-30T12:17:16.954Z,30.00
2022-11-30T12:20:16.535Z,25.10
2022-11-30T12:23:10.484Z,28.20
2022-11-30T12:26:23.775Z,25.20
2022-11-30T12:30:06.407Z,25.60
2022-11-30T12:32:54.133Z,23.50
2022-11-30T12:35:42.581Z,27.90
2022-11-30T12:38:35.382Z,28.20
2022-11-30T12:41:09.212Z,28.90
2022-11-30T12:43:50.746Z,29.30
2022-11-30T12:46:34.868Z,27.00
2022-11-30T12:49:31.089Z,26.80
2022-11-30T13:01:06.358Z,21.90
2022-11-30T13:03:45.224Z,21.70
2022-11-30T13:06:21.983Z,22.90
2022-11-30T13:09:18.714Z,24.70
2022-11-30T13:20:26.312Z,19.60
2022-11-30T13:23:11.903Z,17.40
2022-11-30T14:07:11.488Z,22.20
2022-11-30T14:15:48.354Z,22.50
2022-11-30T14:35:00.458Z,23.20
2022-11-30T14:41:53.159Z,20.30
2022-11-30T14:45:59.023Z,20.50
2022-11-30T15:08:26.946Z,23.90
2022-11-30T15:11:21.881Z,22.30
2022-11-30T15:33:01.864Z,22.70
2022-11-30T15:35:49.929Z,22.70
2022-11-30T15:38:26.252Z,30.20
2022-11-30T15:41:25.170Z,25.00
2022-11-30T15:43:56.560Z,26.70
2022-11-30T15:46:46.114Z,26.80
2022-11-30T15:49:23.011Z,28.40
2022-11-30T15:52:09.565Z,27.30
2022-11-30T15:54:48.250Z,28.90
2022-11-30T15:57:17.016Z,27.50
2022-11-30T16:00:01.989Z,25.80
2022-11-30T16:02:37.363Z,25.50
2022-11-30T16:05:15.676Z,25.20
2022-11-30T16:07:55.260Z,26.40
2022-11-30T16:10:39.429Z,30.60
2022-11-30T16:13:07.327Z,28.70
2022-11-30T16:15:39.165Z,28.60
2022-11-30T16:18:19.851Z,27.80
2022-11-30T16:20:53.103Z,26.70
2022-11-30T16:23:21.886Z,26.70
2022-11-30T16:25:50.349Z,23.50
2022-11-30T16:28:19.816Z,25.10
2022-11-30T16:30:47.990Z,22.20
2022-11-30T16:33:18.887Z,23.80
2022-11-30T16:36:13.161Z,25.20
2022-11-30T16:38:41.494Z,25.80
2022-11-30T16:41:19.066Z,25.90
2022-11-30T16:43:49.716Z,27.10
2022-11-30T16:46:20.970Z,23.50
2022-11-30T16:48:49.457Z,26.00
2022-11-30T16:56:11.850Z,23.80
2022-11-30T16:58:59.148Z,26.50
2022-11-30T17:01:36.255Z,26.10
2022-11-30T17:04:17.514Z,26.60
2022-11-30T17:06:50.244Z,25.70
2022-11-30T17:09:20.843Z,28.10
2022-11-30T17:11:51.181Z,25.80
2022-11-30T17:14:22.413Z,26.20
2022-11-30T17:16:50.546Z,25.40
2022-11-30T17:19:18.376Z,24.70
2022-11-30T17:21:46.519Z,25.60
2022-11-30T17:24:15.822Z,24.40
2022-11-30T17:26:45.222Z,25.60
2022-11-30T17:29:12.950Z,26.10
2022-11-30T17:31:41.001Z,23.80
2022-11-30T17:34:08.904Z,26.70
2022-11-30T17:36:36.690Z,26.20
2022-11-30T17:39:07.085Z,27.30
2022-11-30T17:41:35.442Z,26.50
2022-11-30T17:44:03.421Z,27.00
2022-11-30T17:46:32.433Z,26.60
2022-11-30T17:49:00.285Z,24.20
2022-11-30T17:51:28.550Z,24.20
2022-11-30T17:53:57.372Z,25.70
2022-11-30T17:56:26.137Z,23.80
2022-11-30T17:58:53.929Z,22.50
2022-11-30T18:01:27.476Z,22.80
2022-11-30T18:03:56.038Z,23.00
2022-11-30T18:06:24.425Z,24.50
2022-11-30T18:08:52.734Z,26.10
2022-11-30T18:11:23.799Z,25.00
2022-11-30T18:13:54.848Z,24.20
2022-11-30T18:16:25.155Z,28.70
2022-11-30T18:18:53.579Z,25.70
2022-11-30T18:21:23.192Z,25.90
2022-11-30T18:23:52.486Z,25.10
2022-11-30T18:26:22.902Z,23.40
2022-11-30T18:29:00.735Z,25.30
2022-11-30T18:31:30.246Z,25.50
2022-11-30T18:34:04.675Z,20.90
2022-11-30T18:36:33.937Z,23.60
2022-11-30T18:39:01.720Z,23.40
2022-11-30T18:41:30.649Z,23.40
2022-11-30T18:43:58.693Z,25.00
2022-11-30T18:46:26.838Z,24.20
2022-11-30T18:48:56.968Z,25.80
2022-11-30T18:51:27.901Z,22.70
2022-11-30T18:53:58.790Z,27.50
2022-11-30T18:56:28.975Z,22.60
2022-11-30T18:59:01.694Z,25.60
2022-11-30T19:01:30.972Z,22.70
2022-11-30T19:04:06.094Z,21.70
2022-11-30T19:06:36.154Z,21.50
2022-11-30T19:09:12.500Z,21.30
2022-11-30T19:11:43.017Z,23.80
2022-11-30T19:14:14.875Z,24.30
2022-11-30T19:16:47.824Z,25.30
2022-11-30T19:19:17.620Z,25.30
2022-11-30T19:21:48.197Z,24.60
2022-11-30T19:24:17.852Z,25.70
2022-11-30T19:26:47.360Z,23.30
2022-11-30T19:29:16.756Z,22.00
2022-11-30T19:31:46.119Z,22.10
2022-11-30T19:36:44.634Z,24.20
2022-11-30T19:39:13.774Z,25.00
2022-11-30T19:41:43.148Z,28.10
2022-11-30T19:44:14.930Z,26.50
2022-11-30T19:46:44.264Z,27.20
2022-11-30T19:49:13.271Z,25.50
2022-11-30T19:51:42.458Z,27.50
2022-11-30T19:54:11.560Z,27.80
2022-11-30T19:56:43.000Z,23.40
2022-11-30T19:59:12.269Z,24.30
2022-11-30T20:01:41.551Z,24.80
2022-11-30T20:04:10.697Z,20.80
2022-11-30T20:06:41.499Z,26.10
2022-11-30T20:09:11.898Z,26.90
2022-11-30T20:11:40.366Z,27.20
2022-11-30T20:14:08.258Z,26.60
2022-11-30T20:16:36.461Z,26.30
2022-11-30T20:19:04.454Z,27.00
2022-11-30T20:21:35.153Z,27.20
2022-11-30T20:24:07.007Z,22.00
2022-11-30T20:26:40.059Z,22.80
2022-11-30T20:29:12.067Z,23.50
2022-11-30T20:31:41.882Z,23.80
2022-11-30T20:34:10.823Z,25.90
2022-11-30T20:36:38.838Z,24.00
2022-11-30T20:39:07.567Z,24.80
2022-11-30T20:41:35.608Z,24.70
2022-11-30T20:44:06.328Z,26.20
2022-11-30T20:46:35.911Z,25.20
2022-11-30T20:49:17.872Z,26.40
2022-11-30T20:51:47.137Z,25.90
2022-11-30T20:54:16.525Z,22.00
2022-11-30T20:56:48.868Z,22.00
2022-11-30T20:59:22.323Z,22.40
2022-11-30T21:01:50.557Z,24.00
2022-11-30T21:04:18.461Z,25.50
2022-11-30T21:06:47.686Z,25.40
2022-11-30T21:09:17.235Z,26.00
2022-11-30T21:11:46.016Z,24.90
2022-11-30T21:14:14.518Z,24.30
2022-11-30T21:16:43.641Z,24.00
2022-11-30T21:19:13.400Z,24.40
2022-11-30T21:21:41.811Z,21.40
2022-11-30T21:24:11.669Z,21.30
2022-11-30T21:26:41.792Z,21.50
2022-11-30T21:29:12.666Z,24.70
2022-11-30T21:31:42.418Z,25.30
2022-11-30T21:34:12.277Z,26.70
2022-11-30T21:36:40.015Z,26.10
2022-11-30T21:39:12.367Z,26.00
2022-11-30T21:41:40.979Z,27.20
2022-11-30T21:44:14.763Z,27.50
2022-11-30T21:46:46.590Z,27.40
2022-11-30T21:49:16.514Z,25.70
2022-11-30T21:51:46.419Z,23.20
2022-11-30T21:54:15.497Z,21.30
2022-11-30T21:56:44.808Z,20.40
2022-11-30T22:01:44.809Z,24.30
2022-11-30T22:04:14.115Z,24.40
2022-11-30T22:06:43.160Z,25.10
2022-11-30T22:09:14.779Z,26.30
2022-11-30T22:11:45.074Z,24.10
2022-11-30T22:14:18.421Z,23.10
2022-11-30T22:16:46.426Z,20.80
2022-11-30T22:19:15.751Z,23.00
2022-11-30T22:21:49.787Z,24.60
2022-11-30T22:24:18.645Z,24.10
2022-11-30T22:26:49.161Z,25.40
2022-11-30T22:29:23.265Z,23.80
2022-11-30T22:31:53.430Z,24.10
2022-11-30T22:34:21.780Z,26.10
2022-11-30T22:36:49.612Z,25.20
2022-11-30T22:39:23.944Z,25.10
2022-11-30T22:41:55.622Z,23.40
2022-11-30T22:44:24.760Z,23.60
2022-11-30T22:46:52.886Z,21.60
2022-11-30T22:49:22.208Z,21.60
2022-11-30T22:51:53.279Z,24.90
2022-11-30T22:54:21.032Z,26.20
2022-11-30T22:56:49.089Z,25.20
2022-11-30T22:59:17.166Z,25.80
2022-11-30T23:01:50.169Z,27.00
2022-11-30T23:04:22.987Z,26.10
2022-11-30T23:06:51.143Z,25.30
2022-11-30T23:09:22.049Z,25.50
2022-11-30T23:11:51.283Z,26.90
2022-11-30T23:14:19.464Z,23.80
2022-11-30T23:16:47.996Z,21.40
2022-11-30T23:19:16.054Z,22.10
2022-11-30T23:21:46.895Z,25.50
2022-11-30T23:24:20.370Z,25.80
2022-11-30T23:26:48.912Z,24.80
2022-11-30T23:29:17.612Z,25.50
2022-11-30T23:31:46.082Z,25.80
2022-11-30T23:34:21.403Z,23.90
2022-11-30T23:36:50.161Z,26.20
2022-11-30T23:39:19.928Z,25.90
2022-11-30T23:41:47.930Z,26.90
2022-11-30T23:44:16.256Z,22.90
2022-11-30T23:46:44.445Z,19.60
2022-11-30T23:49:13.896Z,20.80
2022-11-30T23:51:43.506Z,22.50
2022-11-30T23:54:11.247Z,24.50
2022-11-30T23:56:38.956Z,25.40
2022-11-30T23:59:07.527Z,23.70
